sensor_id;sensor_type;location;lat;lon;timestamp;P1;durP1;ratioP1;P2;durP2;ratioP2
55210;SDS011;41082;52.822;6.666;2022-08-04T00:04:11;7.80;;;2.33;;
55210;SDS011;41082;52.822;6.666;2022-08-04T00:12:07;5.30;;;2.00;;
55210;SDS011;41082;52.822;6.666;2022-08-04T00:14:36;4.47;;;2.10;;
55210;SDS011;41082;52.822;6.666;2022-08-04T00:17:07;8.73;;;2.47;;
55210;SDS011;41082;52.822;6.666;2022-08-04T00:19:40;7.32;;;2.40;;
55210;SDS011;41082;52.822;6.666;2022-08-04T00:22:09;5.78;;;2.30;;
55210;SDS011;41082;52.822;6.666;2022-08-04T00:24:35;7.90;;;2.70;;
55210;SDS011;41082;52.822;6.666;2022-08-04T00:27:01;4.63;;;2.15;;
55210;SDS011;41082;52.822;6.666;2022-08-04T00:29:27;5.47;;;2.60;;
55210;SDS011;41082;52.822;6.666;2022-08-04T00:31:54;7.57;;;2.70;;
55210;SDS011;41082;52.822;6.666;2022-08-04T00:34:20;7.50;;;2.90;;
55210;SDS011;41082;52.822;6.666;2022-08-04T00:36:49;5.93;;;2.60;;
55210;SDS011;41082;52.822;6.666;2022-08-04T00:39:17;7.70;;;3.38;;
55210;SDS011;41082;52.822;6.666;2022-08-04T00:44:50;7.22;;;2.95;;
55210;SDS011;41082;52.822;6.666;2022-08-04T00:47:51;8.60;;;3.05;;
55210;SDS011;41082;52.822;6.666;2022-08-04T01:02:15;8.25;;;2.63;;
55210;SDS011;41082;52.822;6.666;2022-08-04T01:07:48;6.57;;;3.28;;
55210;SDS011;41082;52.822;6.666;2022-08-04T01:16:06;11.93;;;3.70;;
55210;SDS011;41082;52.822;6.666;2022-08-04T01:29:33;5.88;;;3.05;;
55210;SDS011;41082;52.822;6.666;2022-08-04T01:32:06;10.38;;;4.35;;
55210;SDS011;41082;52.822;6.666;2022-08-04T01:34:50;8.13;;;3.13;;
55210;SDS011;41082;52.822;6.666;2022-08-04T01:37:53;8.82;;;3.80;;
55210;SDS011;41082;52.822;6.666;2022-08-04T01:40:23;6.90;;;4.57;;
55210;SDS011;41082;52.822;6.666;2022-08-04T01:42:51;10.52;;;4.20;;
55210;SDS011;41082;52.822;6.666;2022-08-04T01:45:17;8.23;;;3.95;;
55210;SDS011;41082;52.822;6.666;2022-08-04T01:47:52;9.57;;;4.40;;
55210;SDS011;41082;52.822;6.666;2022-08-04T01:50:19;9.15;;;3.80;;
55210;SDS011;41082;52.822;6.666;2022-08-04T01:52:46;6.72;;;4.00;;
55210;SDS011;41082;52.822;6.666;2022-08-04T01:55:13;7.65;;;4.18;;
55210;SDS011;41082;52.822;6.666;2022-08-04T01:57:40;8.32;;;4.10;;
55210;SDS011;41082;52.822;6.666;2022-08-04T02:00:11;11.57;;;3.75;;
55210;SDS011;41082;52.822;6.666;2022-08-04T02:02:38;6.00;;;3.65;;
55210;SDS011;41082;52.822;6.666;2022-08-04T02:05:04;10.07;;;3.92;;
55210;SDS011;41082;52.822;6.666;2022-08-04T02:07:44;7.53;;;3.90;;
55210;SDS011;41082;52.822;6.666;2022-08-04T02:10:28;8.70;;;3.63;;
55210;SDS011;41082;52.822;6.666;2022-08-04T02:13:03;7.18;;;3.60;;
55210;SDS011;41082;52.822;6.666;2022-08-04T02:18:24;7.45;;;3.60;;
55210;SDS011;41082;52.822;6.666;2022-08-04T02:20:58;7.78;;;3.65;;
55210;SDS011;41082;52.822;6.666;2022-08-04T02:23:30;11.88;;;3.85;;
55210;SDS011;41082;52.822;6.666;2022-08-04T02:26:02;6.65;;;4.03;;
55210;SDS011;41082;52.822;6.666;2022-08-04T02:31:17;7.55;;;3.80;;
55210;SDS011;41082;52.822;6.666;2022-08-04T02:36:38;8.43;;;3.50;;
55210;SDS011;41082;52.822;6.666;2022-08-04T02:39:07;10.00;;;4.25;;
55210;SDS011;41082;52.822;6.666;2022-08-04T02:41:35;8.25;;;3.95;;
55210;SDS011;41082;52.822;6.666;2022-08-04T02:44:04;11.27;;;4.05;;
55210;SDS011;41082;52.822;6.666;2022-08-04T02:46:32;9.80;;;4.57;;
55210;SDS011;41082;52.822;6.666;2022-08-04T02:49:03;8.55;;;4.50;;
55210;SDS011;41082;52.822;6.666;2022-08-04T02:51:50;7.93;;;4.30;;
55210;SDS011;41082;52.822;6.666;2022-08-04T02:54:19;6.97;;;4.75;;
55210;SDS011;41082;52.822;6.666;2022-08-04T02:56:51;11.30;;;4.43;;
55210;SDS011;41082;52.822;6.666;2022-08-04T02:59:20;10.15;;;4.38;;
55210;SDS011;41082;52.822;6.666;2022-08-04T03:01:49;9.80;;;4.27;;
55210;SDS011;41082;52.822;6.666;2022-08-04T03:04:21;10.05;;;4.82;;
55210;SDS011;41082;52.822;6.666;2022-08-04T03:07:35;9.98;;;4.90;;
55210;SDS011;41082;52.822;6.666;2022-08-04T03:15:53;8.98;;;4.13;;
55210;SDS011;41082;52.822;6.666;2022-08-04T03:29:54;8.30;;;4.28;;
55210;SDS011;41082;52.822;6.666;2022-08-04T03:38:10;12.48;;;5.43;;
55210;SDS011;41082;52.822;6.666;2022-08-04T03:57:46;6.95;;;4.20;;
55210;SDS011;41082;52.822;6.666;2022-08-04T04:00:18;9.63;;;4.22;;
55210;SDS011;41082;52.822;6.666;2022-08-04T04:09:19;9.55;;;4.25;;
55210;SDS011;41082;52.822;6.666;2022-08-04T04:23:29;7.57;;;4.50;;
55210;SDS011;41082;52.822;6.666;2022-08-04T04:32:00;9.32;;;5.05;;
55210;SDS011;41082;52.822;6.666;2022-08-04T04:51:41;9.73;;;5.53;;
55210;SDS011;41082;52.822;6.666;2022-08-04T04:54:31;9.63;;;4.70;;
55210;SDS011;41082;52.822;6.666;2022-08-04T04:57:17;10.32;;;4.43;;
55210;SDS011;41082;52.822;6.666;2022-08-04T04:59:52;12.07;;;4.97;;
55210;SDS011;41082;52.822;6.666;2022-08-04T05:05:46;10.77;;;5.35;;
55210;SDS011;41082;52.822;6.666;2022-08-04T05:14:07;11.60;;;5.90;;
55210;SDS011;41082;52.822;6.666;2022-08-04T05:16:44;12.10;;;6.30;;
55210;SDS011;41082;52.822;6.666;2022-08-04T05:21:55;14.23;;;5.60;;
55210;SDS011;41082;52.822;6.666;2022-08-04T05:24:26;12.35;;;5.18;;
55210;SDS011;41082;52.822;6.666;2022-08-04T05:26:55;11.55;;;5.60;;
55210;SDS011;41082;52.822;6.666;2022-08-04T05:29:30;12.48;;;5.90;;
55210;SDS011;41082;52.822;6.666;2022-08-04T05:32:00;8.07;;;5.43;;
55210;SDS011;41082;52.822;6.666;2022-08-04T05:34:30;14.05;;;6.32;;
55210;SDS011;41082;52.822;6.666;2022-08-04T05:37:06;9.32;;;5.72;;
55210;SDS011;41082;52.822;6.666;2022-08-04T05:39:38;16.35;;;6.57;;
55210;SDS011;41082;52.822;6.666;2022-08-04T05:42:17;15.10;;;6.38;;
55210;SDS011;41082;52.822;6.666;2022-08-04T05:44:44;11.38;;;6.40;;
55210;SDS011;41082;52.822;6.666;2022-08-04T05:47:10;11.82;;;6.88;;
55210;SDS011;41082;52.822;6.666;2022-08-04T05:49:38;11.80;;;6.85;;
55210;SDS011;41082;52.822;6.666;2022-08-04T05:52:05;14.68;;;7.28;;
55210;SDS011;41082;52.822;6.666;2022-08-04T05:54:34;10.30;;;6.47;;
55210;SDS011;41082;52.822;6.666;2022-08-04T05:57:02;9.27;;;6.45;;
55210;SDS011;41082;52.822;6.666;2022-08-04T05:59:30;8.20;;;5.43;;
55210;SDS011;41082;52.822;6.666;2022-08-04T06:01:57;11.63;;;5.75;;
55210;SDS011;41082;52.822;6.666;2022-08-04T06:04:26;11.02;;;7.05;;
55210;SDS011;41082;52.822;6.666;2022-08-04T06:06:56;13.63;;;6.30;;
55210;SDS011;41082;52.822;6.666;2022-08-04T06:09:22;11.48;;;5.85;;
55210;SDS011;41082;52.822;6.666;2022-08-04T06:11:48;13.00;;;7.45;;
55210;SDS011;41082;52.822;6.666;2022-08-04T06:14:16;10.88;;;6.88;;
55210;SDS011;41082;52.822;6.666;2022-08-04T06:16:44;10.05;;;6.53;;
55210;SDS011;41082;52.822;6.666;2022-08-04T06:19:12;16.10;;;7.35;;
55210;SDS011;41082;52.822;6.666;2022-08-04T06:21:40;11.73;;;6.60;;
55210;SDS011;41082;52.822;6.666;2022-08-04T06:24:10;12.60;;;7.07;;
55210;SDS011;41082;52.822;6.666;2022-08-04T06:26:38;15.20;;;6.85;;
55210;SDS011;41082;52.822;6.666;2022-08-04T06:29:04;11.25;;;8.52;;
55210;SDS011;41082;52.822;6.666;2022-08-04T06:34:08;13.98;;;7.63;;
55210;SDS011;41082;52.822;6.666;2022-08-04T06:36:35;12.02;;;7.30;;
55210;SDS011;41082;52.822;6.666;2022-08-04T06:39:03;14.65;;;7.70;;
55210;SDS011;41082;52.822;6.666;2022-08-04T06:41:29;11.02;;;7.40;;
55210;SDS011;41082;52.822;6.666;2022-08-04T06:43:59;10.88;;;7.20;;
55210;SDS011;41082;52.822;6.666;2022-08-04T06:46:28;12.45;;;6.93;;
55210;SDS011;41082;52.822;6.666;2022-08-04T06:48:54;8.88;;;6.60;;
55210;SDS011;41082;52.822;6.666;2022-08-04T06:51:22;13.73;;;6.68;;
55210;SDS011;41082;52.822;6.666;2022-08-04T06:53:49;14.30;;;7.13;;
55210;SDS011;41082;52.822;6.666;2022-08-04T06:56:15;16.08;;;7.25;;
55210;SDS011;41082;52.822;6.666;2022-08-04T06:58:44;11.48;;;6.93;;
55210;SDS011;41082;52.822;6.666;2022-08-04T07:01:12;8.73;;;6.32;;
55210;SDS011;41082;52.822;6.666;2022-08-04T07:03:39;16.08;;;7.18;;
55210;SDS011;41082;52.822;6.666;2022-08-04T07:06:05;13.15;;;7.38;;
55210;SDS011;41082;52.822;6.666;2022-08-04T07:08:31;16.80;;;8.40;;
55210;SDS011;41082;52.822;6.666;2022-08-04T07:10:58;13.57;;;7.53;;
55210;SDS011;41082;52.822;6.666;2022-08-04T07:13:26;13.13;;;6.72;;
55210;SDS011;41082;52.822;6.666;2022-08-04T07:15:52;17.38;;;7.15;;
55210;SDS011;41082;52.822;6.666;2022-08-04T07:18:19;14.30;;;6.60;;
55210;SDS011;41082;52.822;6.666;2022-08-04T07:20:44;14.60;;;7.55;;
55210;SDS011;41082;52.822;6.666;2022-08-04T07:23:11;13.20;;;7.82;;
55210;SDS011;41082;52.822;6.666;2022-08-04T07:25:41;13.45;;;7.20;;
55210;SDS011;41082;52.822;6.666;2022-08-04T07:28:07;11.27;;;6.10;;
55210;SDS011;41082;52.822;6.666;2022-08-04T07:30:33;14.13;;;7.03;;
55210;SDS011;41082;52.822;6.666;2022-08-04T07:33:00;12.00;;;5.93;;
55210;SDS011;41082;52.822;6.666;2022-08-04T07:35:26;11.15;;;4.80;;
55210;SDS011;41082;52.822;6.666;2022-08-04T07:37:53;8.73;;;5.03;;
55210;SDS011;41082;52.822;6.666;2022-08-04T07:40:18;10.82;;;4.85;;
55210;SDS011;41082;52.822;6.666;2022-08-04T07:42:45;8.88;;;5.45;;
55210;SDS011;41082;52.822;6.666;2022-08-04T07:45:10;12.00;;;5.15;;
55210;SDS011;41082;52.822;6.666;2022-08-04T07:47:41;9.48;;;4.93;;
55210;SDS011;41082;52.822;6.666;2022-08-04T07:50:10;16.20;;;6.35;;
55210;SDS011;41082;52.822;6.666;2022-08-04T07:52:36;12.93;;;4.55;;
55210;SDS011;41082;52.822;6.666;2022-08-04T07:55:03;9.52;;;4.78;;
55210;SDS011;41082;52.822;6.666;2022-08-04T07:57:29;7.90;;;3.90;;
55210;SDS011;41082;52.822;6.666;2022-08-04T07:59:55;9.75;;;3.58;;
55210;SDS011;41082;52.822;6.666;2022-08-04T08:02:20;7.13;;;3.00;;
55210;SDS011;41082;52.822;6.666;2022-08-04T08:04:47;8.77;;;2.70;;
55210;SDS011;41082;52.822;6.666;2022-08-04T08:07:14;9.40;;;2.53;;
55210;SDS011;41082;52.822;6.666;2022-08-04T08:09:39;7.28;;;2.38;;
55210;SDS011;41082;52.822;6.666;2022-08-04T08:12:06;7.45;;;2.42;;
55210;SDS011;41082;52.822;6.666;2022-08-04T08:14:32;7.30;;;2.15;;
55210;SDS011;41082;52.822;6.666;2022-08-04T08:16:59;9.32;;;2.50;;
55210;SDS011;41082;52.822;6.666;2022-08-04T08:19:26;9.13;;;2.40;;
55210;SDS011;41082;52.822;6.666;2022-08-04T08:21:52;8.88;;;2.90;;
55210;SDS011;41082;52.822;6.666;2022-08-04T08:24:18;10.80;;;2.70;;
55210;SDS011;41082;52.822;6.666;2022-08-04T08:26:44;4.85;;;2.20;;
55210;SDS011;41082;52.822;6.666;2022-08-04T08:29:11;5.15;;;2.50;;
55210;SDS011;41082;52.822;6.666;2022-08-04T08:31:36;7.25;;;1.88;;
55210;SDS011;41082;52.822;6.666;2022-08-04T08:34:02;6.88;;;2.83;;
55210;SDS011;41082;52.822;6.666;2022-08-04T08:36:33;8.27;;;1.88;;
55210;SDS011;41082;52.822;6.666;2022-08-04T08:39:09;8.45;;;2.03;;
55210;SDS011;41082;52.822;6.666;2022-08-04T08:47:24;5.78;;;2.33;;
55210;SDS011;41082;52.822;6.666;2022-08-04T09:01:05;7.28;;;1.45;;
55210;SDS011;41082;52.822;6.666;2022-08-04T09:14:39;3.65;;;1.40;;
55210;SDS011;41082;52.822;6.666;2022-08-04T09:17:23;6.95;;;1.33;;
55210;SDS011;41082;52.822;6.666;2022-08-04T09:20:20;6.82;;;1.48;;
55210;SDS011;41082;52.822;6.666;2022-08-04T09:23:06;3.58;;;1.40;;
55210;SDS011;41082;52.822;6.666;2022-08-04T09:28:37;7.88;;;1.85;;
55210;SDS011;41082;52.822;6.666;2022-08-04T09:31:15;5.38;;;1.23;;
55210;SDS011;41082;52.822;6.666;2022-08-04T09:34:08;6.57;;;2.10;;
55210;SDS011;41082;52.822;6.666;2022-08-04T09:37:23;7.05;;;1.60;;
55210;SDS011;41082;52.822;6.666;2022-08-04T09:45:23;5.95;;;2.17;;
55210;SDS011;41082;52.822;6.666;2022-08-04T09:47:56;6.30;;;1.95;;
55210;SDS011;41082;52.822;6.666;2022-08-04T09:53:51;7.88;;;1.73;;
55210;SDS011;41082;52.822;6.666;2022-08-04T09:56:10;6.95;;;2.13;;
55210;SDS011;41082;52.822;6.666;2022-08-04T10:01:23;7.68;;;2.40;;
55210;SDS011;41082;52.822;6.666;2022-08-04T10:04:00;7.20;;;1.98;;
55210;SDS011;41082;52.822;6.666;2022-08-04T10:09:33;6.57;;;1.80;;
55210;SDS011;41082;52.822;6.666;2022-08-04T10:12:24;6.97;;;2.22;;
55210;SDS011;41082;52.822;6.666;2022-08-04T10:15:08;7.53;;;2.08;;
55210;SDS011;41082;52.822;6.666;2022-08-04T10:17:58;6.28;;;2.42;;
55210;SDS011;41082;52.822;6.666;2022-08-04T10:20:54;8.15;;;3.08;;
55210;SDS011;41082;52.822;6.666;2022-08-04T10:28:54;7.15;;;3.00;;
55210;SDS011;41082;52.822;6.666;2022-08-04T10:31:35;8.75;;;2.70;;
55210;SDS011;41082;52.822;6.666;2022-08-04T10:34:13;7.97;;;2.45;;
55210;SDS011;41082;52.822;6.666;2022-08-04T10:37:03;5.13;;;2.20;;
55210;SDS011;41082;52.822;6.666;2022-08-04T10:39:51;10.07;;;2.28;;
55210;SDS011;41082;52.822;6.666;2022-08-04T10:42:49;8.43;;;1.95;;
55210;SDS011;41082;52.822;6.666;2022-08-04T10:45:24;8.10;;;1.95;;
55210;SDS011;41082;52.822;6.666;2022-08-04T10:47:58;7.82;;;1.77;;
55210;SDS011;41082;52.822;6.666;2022-08-04T10:50:52;6.03;;;1.20;;
55210;SDS011;41082;52.822;6.666;2022-08-04T10:53:28;8.25;;;1.70;;
55210;SDS011;41082;52.822;6.666;2022-08-04T10:56:03;5.88;;;2.03;;
55210;SDS011;41082;52.822;6.666;2022-08-04T10:58:39;7.35;;;1.30;;
55210;SDS011;41082;52.822;6.666;2022-08-04T11:01:14;5.82;;;1.27;;
55210;SDS011;41082;52.822;6.666;2022-08-04T11:03:57;11.20;;;1.55;;
55210;SDS011;41082;52.822;6.666;2022-08-04T11:06:28;5.68;;;1.20;;
55210;SDS011;41082;52.822;6.666;2022-08-04T11:08:54;5.82;;;1.20;;
55210;SDS011;41082;52.822;6.666;2022-08-04T11:11:42;5.80;;;1.50;;
55210;SDS011;41082;52.822;6.666;2022-08-04T11:14:17;6.78;;;1.55;;
55210;SDS011;41082;52.822;6.666;2022-08-04T11:19:36;7.95;;;1.33;;
55210;SDS011;41082;52.822;6.666;2022-08-04T11:22:22;6.53;;;1.20;;
55210;SDS011;41082;52.822;6.666;2022-08-04T11:30:56;3.65;;;0.90;;
55210;SDS011;41082;52.822;6.666;2022-08-04T11:35:57;6.22;;;1.42;;
55210;SDS011;41082;52.822;6.666;2022-08-04T11:41:47;5.30;;;0.90;;
55210;SDS011;41082;52.822;6.666;2022-08-04T11:44:28;6.53;;;0.98;;
55210;SDS011;41082;52.822;6.666;2022-08-04T11:47:02;5.97;;;0.75;;
55210;SDS011;41082;52.822;6.666;2022-08-04T11:49:33;6.10;;;1.15;;
55210;SDS011;41082;52.822;6.666;2022-08-04T11:52:05;5.05;;;0.65;;
55210;SDS011;41082;52.822;6.666;2022-08-04T11:54:32;7.60;;;0.95;;
55210;SDS011;41082;52.822;6.666;2022-08-04T11:56:58;5.80;;;0.65;;
55210;SDS011;41082;52.822;6.666;2022-08-04T11:59:24;8.30;;;1.30;;
55210;SDS011;41082;52.822;6.666;2022-08-04T12:13:00;5.72;;;0.90;;
55210;SDS011;41082;52.822;6.666;2022-08-04T12:15:49;9.93;;;1.48;;
55210;SDS011;41082;52.822;6.666;2022-08-04T12:18:23;7.63;;;1.30;;
55210;SDS011;41082;52.822;6.666;2022-08-04T12:20:58;4.47;;;0.80;;
55210;SDS011;41082;52.822;6.666;2022-08-04T12:23:33;21.55;;;1.75;;
55210;SDS011;41082;52.822;6.666;2022-08-04T12:26:02;4.30;;;0.73;;
55210;SDS011;41082;52.822;6.666;2022-08-04T12:28:32;6.10;;;1.23;;
55210;SDS011;41082;52.822;6.666;2022-08-04T12:31:46;5.38;;;0.60;;
55210;SDS011;41082;52.822;6.666;2022-08-04T12:34:08;3.55;;;0.80;;
55210;SDS011;41082;52.822;6.666;2022-08-04T12:36:42;1.75;;;0.40;;
55210;SDS011;41082;52.822;6.666;2022-08-04T12:39:18;4.18;;;0.35;;
55210;SDS011;41082;52.822;6.666;2022-08-04T12:41:47;4.13;;;0.60;;
55210;SDS011;41082;52.822;6.666;2022-08-04T12:44:17;2.53;;;0.60;;
55210;SDS011;41082;52.822;6.666;2022-08-04T12:46:45;4.82;;;0.60;;
55210;SDS011;41082;52.822;6.666;2022-08-04T12:49:11;2.42;;;0.43;;
55210;SDS011;41082;52.822;6.666;2022-08-04T12:51:39;5.13;;;0.50;;
55210;SDS011;41082;52.822;6.666;2022-08-04T12:54:08;3.05;;;0.90;;
55210;SDS011;41082;52.822;6.666;2022-08-04T12:56:35;2.53;;;0.40;;
55210;SDS011;41082;52.822;6.666;2022-08-04T12:59:03;2.45;;;0.70;;
55210;SDS011;41082;52.822;6.666;2022-08-04T13:01:31;2.22;;;0.80;;
55210;SDS011;41082;52.822;6.666;2022-08-04T13:03:58;4.25;;;0.75;;
55210;SDS011;41082;52.822;6.666;2022-08-04T13:06:29;4.03;;;0.75;;
55210;SDS011;41082;52.822;6.666;2022-08-04T13:09:02;3.70;;;0.50;;
55210;SDS011;41082;52.822;6.666;2022-08-04T13:11:35;2.80;;;0.80;;
55210;SDS011;41082;52.822;6.666;2022-08-04T13:14:04;1.70;;;0.57;;
55210;SDS011;41082;52.822;6.666;2022-08-04T13:16:31;4.05;;;1.30;;
55210;SDS011;41082;52.822;6.666;2022-08-04T13:18:57;52.00;;;2.60;;
55210;SDS011;41082;52.822;6.666;2022-08-04T13:21:24;2.95;;;0.50;;
55210;SDS011;41082;52.822;6.666;2022-08-04T13:23:52;1.65;;;0.40;;
55210;SDS011;41082;52.822;6.666;2022-08-04T13:26:22;1.30;;;0.40;;
55210;SDS011;41082;52.822;6.666;2022-08-04T13:28:48;2.58;;;0.70;;
55210;SDS011;41082;52.822;6.666;2022-08-04T13:31:22;2.45;;;0.40;;
55210;SDS011;41082;52.822;6.666;2022-08-04T13:33:52;4.18;;;0.50;;
55210;SDS011;41082;52.822;6.666;2022-08-04T13:36:26;2.75;;;0.28;;
55210;SDS011;41082;52.822;6.666;2022-08-04T13:38:54;1.63;;;0.20;;
55210;SDS011;41082;52.822;6.666;2022-08-04T13:41:24;4.63;;;0.50;;
55210;SDS011;41082;52.822;6.666;2022-08-04T13:43:53;3.00;;;0.40;;
55210;SDS011;41082;52.822;6.666;2022-08-04T13:46:26;1.20;;;0.60;;
55210;SDS011;41082;52.822;6.666;2022-08-04T13:48:56;3.58;;;0.40;;
55210;SDS011;41082;52.822;6.666;2022-08-04T13:51:25;3.20;;;0.40;;
55210;SDS011;41082;52.822;6.666;2022-08-04T13:53:57;1.63;;;0.40;;
55210;SDS011;41082;52.822;6.666;2022-08-04T13:56:29;2.08;;;0.40;;
55210;SDS011;41082;52.822;6.666;2022-08-04T13:59:00;2.42;;;0.50;;
55210;SDS011;41082;52.822;6.666;2022-08-04T14:01:30;1.65;;;0.40;;
55210;SDS011;41082;52.822;6.666;2022-08-04T14:04:01;2.35;;;0.50;;
55210;SDS011;41082;52.822;6.666;2022-08-04T14:06:34;4.50;;;0.60;;
55210;SDS011;41082;52.822;6.666;2022-08-04T14:09:14;3.70;;;0.40;;
55210;SDS011;41082;52.822;6.666;2022-08-04T14:17:06;2.35;;;0.45;;
55210;SDS011;41082;52.822;6.666;2022-08-04T14:30:35;2.15;;;0.38;;
55210;SDS011;41082;52.822;6.666;2022-08-04T14:33:03;2.40;;;0.40;;
55210;SDS011;41082;52.822;6.666;2022-08-04T14:35:35;1.40;;;0.50;;
55210;SDS011;41082;52.822;6.666;2022-08-04T14:38:09;2.58;;;0.43;;
55210;SDS011;41082;52.822;6.666;2022-08-04T14:40:37;2.10;;;0.40;;
55210;SDS011;41082;52.822;6.666;2022-08-04T14:43:05;1.98;;;0.30;;
55210;SDS011;41082;52.822;6.666;2022-08-04T14:45:32;3.50;;;0.38;;
55210;SDS011;41082;52.822;6.666;2022-08-04T14:48:00;3.17;;;0.50;;
55210;SDS011;41082;52.822;6.666;2022-08-04T14:55:37;0.98;;;0.40;;
55210;SDS011;41082;52.822;6.666;2022-08-04T14:58:04;2.28;;;0.50;;
55210;SDS011;41082;52.822;6.666;2022-08-04T15:00:32;4.22;;;0.75;;
55210;SDS011;41082;52.822;6.666;2022-08-04T15:03:07;2.10;;;0.40;;
55210;SDS011;41082;52.822;6.666;2022-08-04T15:05:34;2.75;;;0.30;;
55210;SDS011;41082;52.822;6.666;2022-08-04T15:08:00;2.70;;;0.50;;
55210;SDS011;41082;52.822;6.666;2022-08-04T15:10:26;2.08;;;0.45;;
55210;SDS011;41082;52.822;6.666;2022-08-04T15:12:53;2.30;;;0.63;;
55210;SDS011;41082;52.822;6.666;2022-08-04T15:15:19;3.58;;;0.30;;
55210;SDS011;41082;52.822;6.666;2022-08-04T15:17:45;1.63;;;0.40;;
55210;SDS011;41082;52.822;6.666;2022-08-04T15:20:11;1.75;;;0.43;;
55210;SDS011;41082;52.822;6.666;2022-08-04T15:22:37;1.83;;;0.30;;
55210;SDS011;41082;52.822;6.666;2022-08-04T15:25:02;3.25;;;0.30;;
55210;SDS011;41082;52.822;6.666;2022-08-04T15:27:29;2.85;;;0.30;;
55210;SDS011;41082;52.822;6.666;2022-08-04T15:30:03;3.92;;;0.20;;
55210;SDS011;41082;52.822;6.666;2022-08-04T15:32:31;2.63;;;0.30;;
55210;SDS011;41082;52.822;6.666;2022-08-04T15:35:41;0.95;;;0.30;;
55210;SDS011;41082;52.822;6.666;2022-08-04T15:40:21;2.15;;;0.40;;
55210;SDS011;41082;52.822;6.666;2022-08-04T15:46:07;1.40;;;0.40;;
55210;SDS011;41082;52.822;6.666;2022-08-04T15:48:32;3.33;;;0.40;;
55210;SDS011;41082;52.822;6.666;2022-08-04T15:50:59;2.50;;;0.22;;
55210;SDS011;41082;52.822;6.666;2022-08-04T15:53:28;1.92;;;0.30;;
55210;SDS011;41082;52.822;6.666;2022-08-04T15:58:50;4.03;;;0.40;;
55210;SDS011;41082;52.822;6.666;2022-08-04T16:01:18;1.83;;;0.40;;
55210;SDS011;41082;52.822;6.666;2022-08-04T16:03:52;3.42;;;0.30;;
55210;SDS011;41082;52.822;6.666;2022-08-04T16:24:28;2.97;;;0.40;;
55210;SDS011;41082;52.822;6.666;2022-08-04T16:27:00;2.95;;;0.40;;
55210;SDS011;41082;52.822;6.666;2022-08-04T16:29:27;2.30;;;0.30;;
55210;SDS011;41082;52.822;6.666;2022-08-04T16:34:34;2.47;;;0.28;;
55210;SDS011;41082;52.822;6.666;2022-08-04T16:37:04;1.70;;;0.50;;
55210;SDS011;41082;52.822;6.666;2022-08-04T16:39:34;2.10;;;0.30;;
55210;SDS011;41082;52.822;6.666;2022-08-04T16:42:27;1.65;;;0.30;;
55210;SDS011;41082;52.822;6.666;2022-08-04T16:45:08;2.15;;;0.30;;
55210;SDS011;41082;52.822;6.666;2022-08-04T16:52:43;4.25;;;0.40;;
55210;SDS011;41082;52.822;6.666;2022-08-04T16:55:18;5.90;;;0.57;;
55210;SDS011;41082;52.822;6.666;2022-08-04T16:57:53;4.93;;;0.52;;
55210;SDS011;41082;52.822;6.666;2022-08-04T17:00:31;2.22;;;0.45;;
55210;SDS011;41082;52.822;6.666;2022-08-04T17:03:04;2.10;;;0.47;;
55210;SDS011;41082;52.822;6.666;2022-08-04T17:05:32;3.55;;;0.50;;
55210;SDS011;41082;52.822;6.666;2022-08-04T17:07:59;3.28;;;0.45;;
55210;SDS011;41082;52.822;6.666;2022-08-04T17:10:30;4.38;;;0.50;;
55210;SDS011;41082;52.822;6.666;2022-08-04T17:15:53;1.98;;;0.40;;
55210;SDS011;41082;52.822;6.666;2022-08-04T17:18:23;2.13;;;0.40;;
55210;SDS011;41082;52.822;6.666;2022-08-04T17:20:52;1.65;;;0.40;;
55210;SDS011;41082;52.822;6.666;2022-08-04T17:23:23;2.28;;;0.35;;
55210;SDS011;41082;52.822;6.666;2022-08-04T17:25:58;2.22;;;0.50;;
55210;SDS011;41082;52.822;6.666;2022-08-04T17:28:26;2.03;;;0.50;;
55210;SDS011;41082;52.822;6.666;2022-08-04T17:30:53;4.55;;;0.60;;
55210;SDS011;41082;52.822;6.666;2022-08-04T17:33:20;4.22;;;0.70;;
55210;SDS011;41082;52.822;6.666;2022-08-04T17:35:48;1.95;;;0.50;;
55210;SDS011;41082;52.822;6.666;2022-08-04T17:38:14;3.08;;;0.30;;
55210;SDS011;41082;52.822;6.666;2022-08-04T17:40:59;4.45;;;0.57;;
55210;SDS011;41082;52.822;6.666;2022-08-04T17:43:44;1.85;;;0.45;;
55210;SDS011;41082;52.822;6.666;2022-08-04T17:48:40;2.13;;;0.40;;
55210;SDS011;41082;52.822;6.666;2022-08-04T17:51:15;2.63;;;0.40;;
55210;SDS011;41082;52.822;6.666;2022-08-04T17:53:42;1.30;;;0.30;;
55210;SDS011;41082;52.822;6.666;2022-08-04T17:56:27;1.52;;;0.30;;
55210;SDS011;41082;52.822;6.666;2022-08-04T17:59:07;1.45;;;0.20;;
55210;SDS011;41082;52.822;6.666;2022-08-04T18:04:48;1.73;;;0.77;;
55210;SDS011;41082;52.822;6.666;2022-08-04T18:09:40;2.17;;;0.47;;
55210;SDS011;41082;52.822;6.666;2022-08-04T18:12:15;1.75;;;0.30;;
55210;SDS011;41082;52.822;6.666;2022-08-04T18:14:46;3.20;;;0.30;;
55210;SDS011;41082;52.822;6.666;2022-08-04T18:17:14;1.33;;;0.25;;
55210;SDS011;41082;52.822;6.666;2022-08-04T18:19:55;2.60;;;0.30;;
55210;SDS011;41082;52.822;6.666;2022-08-04T18:22:20;1.60;;;0.20;;
55210;SDS011;41082;52.822;6.666;2022-08-04T18:24:46;1.65;;;0.30;;
55210;SDS011;41082;52.822;6.666;2022-08-04T18:27:12;1.63;;;0.30;;
55210;SDS011;41082;52.822;6.666;2022-08-04T18:29:38;1.80;;;0.45;;
55210;SDS011;41082;52.822;6.666;2022-08-04T18:32:04;1.02;;;0.30;;
55210;SDS011;41082;52.822;6.666;2022-08-04T18:34:30;1.33;;;0.20;;
55210;SDS011;41082;52.822;6.666;2022-08-04T18:36:56;1.90;;;0.38;;
55210;SDS011;41082;52.822;6.666;2022-08-04T18:39:21;2.70;;;0.80;;
55210;SDS011;41082;52.822;6.666;2022-08-04T18:41:49;3.17;;;0.45;;
55210;SDS011;41082;52.822;6.666;2022-08-04T18:44:15;1.73;;;0.30;;
55210;SDS011;41082;52.822;6.666;2022-08-04T18:46:41;1.70;;;0.57;;
55210;SDS011;41082;52.822;6.666;2022-08-04T18:49:06;1.15;;;0.45;;
55210;SDS011;41082;52.822;6.666;2022-08-04T18:51:34;1.45;;;0.30;;
55210;SDS011;41082;52.822;6.666;2022-08-04T18:54:00;3.92;;;0.30;;
55210;SDS011;41082;52.822;6.666;2022-08-04T18:56:26;0.68;;;0.20;;
55210;SDS011;41082;52.822;6.666;2022-08-04T18:58:53;3.45;;;1.10;;
55210;SDS011;41082;52.822;6.666;2022-08-04T19:01:18;2.90;;;0.30;;
55210;SDS011;41082;52.822;6.666;2022-08-04T19:03:44;1.98;;;0.50;;
55210;SDS011;41082;52.822;6.666;2022-08-04T19:06:09;3.75;;;0.40;;
55210;SDS011;41082;52.822;6.666;2022-08-04T19:08:35;2.33;;;0.50;;
55210;SDS011;41082;52.822;6.666;2022-08-04T19:11:02;2.25;;;0.50;;
55210;SDS011;41082;52.822;6.666;2022-08-04T19:13:28;4.72;;;0.50;;
55210;SDS011;41082;52.822;6.666;2022-08-04T19:15:55;2.22;;;0.52;;
55210;SDS011;41082;52.822;6.666;2022-08-04T19:18:21;3.10;;;0.47;;
55210;SDS011;41082;52.822;6.666;2022-08-04T19:20:47;3.58;;;0.60;;
55210;SDS011;41082;52.822;6.666;2022-08-04T19:23:12;2.33;;;0.38;;
55210;SDS011;41082;52.822;6.666;2022-08-04T19:25:38;2.05;;;0.40;;
55210;SDS011;41082;52.822;6.666;2022-08-04T19:28:04;2.17;;;0.60;;
55210;SDS011;41082;52.822;6.666;2022-08-04T19:30:29;3.65;;;0.70;;
55210;SDS011;41082;52.822;6.666;2022-08-04T19:32:55;2.15;;;0.55;;
55210;SDS011;41082;52.822;6.666;2022-08-04T19:35:20;5.07;;;0.70;;
55210;SDS011;41082;52.822;6.666;2022-08-04T19:37:46;4.18;;;0.52;;
55210;SDS011;41082;52.822;6.666;2022-08-04T19:40:12;3.22;;;0.73;;
55210;SDS011;41082;52.822;6.666;2022-08-04T19:42:38;2.17;;;0.60;;
55210;SDS011;41082;52.822;6.666;2022-08-04T19:45:04;3.08;;;0.73;;
55210;SDS011;41082;52.822;6.666;2022-08-04T19:47:31;2.85;;;0.60;;
55210;SDS011;41082;52.822;6.666;2022-08-04T19:49:57;3.28;;;0.60;;
55210;SDS011;41082;52.822;6.666;2022-08-04T19:52:23;9.32;;;0.90;;
55210;SDS011;41082;52.822;6.666;2022-08-04T19:54:48;2.60;;;0.60;;
55210;SDS011;41082;52.822;6.666;2022-08-04T19:57:14;5.03;;;0.70;;
55210;SDS011;41082;52.822;6.666;2022-08-04T19:59:39;2.28;;;0.55;;